createdAt,value
2019-03-08T00:00:50.389Z,0
2019-03-08T00:01:52.550Z,0
2019-03-08T00:02:54.716Z,0
2019-03-08T00:03:56.859Z,0
2019-03-08T00:05:00.582Z,0
2019-03-08T00:06:02.771Z,0
2019-03-08T00:07:04.945Z,0
2019-03-08T00:08:07.116Z,0
2019-03-08T00:09:09.278Z,0
2019-03-08T00:10:11.451Z,0
2019-03-08T00:11:13.642Z,0
2019-03-08T00:12:15.791Z,0
2019-03-08T00:13:17.966Z,0
2019-03-08T00:14:20.115Z,0
2019-03-08T00:15:22.551Z,0
2019-03-08T00:16:25.459Z,0
2019-03-08T00:17:27.624Z,0
2019-03-08T00:18:29.774Z,0
2019-03-08T00:19:31.935Z,0
2019-03-08T00:20:34.397Z,0
2019-03-08T00:21:36.544Z,0
2019-03-08T00:22:38.715Z,0
2019-03-08T00:23:40.900Z,0
2019-03-08T00:24:43.358Z,0
2019-03-08T00:25:45.519Z,0
2019-03-08T00:26:48.078Z,0
2019-03-08T00:27:51.416Z,0
2019-03-08T00:28:55.135Z,0
2019-03-08T00:29:57.409Z,0
2019-03-08T00:31:00.225Z,0
2019-03-08T00:32:02.390Z,0
2019-03-08T00:33:04.566Z,0
2019-03-08T00:34:06.714Z,0
2019-03-08T00:35:08.870Z,0
2019-03-08T00:36:11.324Z,0
2019-03-08T00:37:13.476Z,0
2019-03-08T00:38:15.642Z,0
2019-03-08T00:39:19.081Z,0
2019-03-08T00:40:21.533Z,0
2019-03-08T00:41:23.694Z,0
2019-03-08T00:42:25.851Z,0
2019-03-08T00:43:28.022Z,0
2019-03-08T00:44:30.549Z,0
2019-03-08T00:45:32.701Z,0
2019-03-08T00:46:34.859Z,0
2019-03-08T00:47:37.000Z,0
2019-03-08T00:48:39.197Z,0
2019-03-08T00:49:41.351Z,0
2019-03-08T00:50:44.533Z,0
2019-03-08T00:51:46.705Z,0
2019-03-08T00:52:48.881Z,0
2019-03-08T00:53:51.046Z,0
2019-03-08T00:54:53.759Z,0
2019-03-08T00:55:55.941Z,0
2019-03-08T00:56:58.128Z,0
2019-03-08T00:58:00.290Z,0
2019-03-08T00:59:02.719Z,0
2019-03-08T01:00:04.898Z,0
2019-03-08T01:01:07.043Z,0
2019-03-08T01:02:10.297Z,0
2019-03-08T01:03:12.742Z,0
2019-03-08T01:04:14.896Z,0
2019-03-08T01:05:17.056Z,0
2019-03-08T01:06:19.278Z,0
2019-03-08T01:07:21.832Z,0
2019-03-08T01:08:24.022Z,0
2019-03-08T01:09:26.192Z,0
2019-03-08T01:10:28.336Z,0
2019-03-08T01:11:31.061Z,0
2019-03-08T01:12:33.229Z,0
2019-03-08T01:13:36.653Z,0
2019-03-08T01:14:38.802Z,0
2019-03-08T01:15:40.961Z,0
2019-03-08T01:16:43.139Z,0
2019-03-08T01:17:45.319Z,0
2019-03-08T01:18:47.873Z,0
2019-03-08T01:19:50.610Z,0
2019-03-08T01:20:52.769Z,0
2019-03-08T01:21:54.928Z,0
2019-03-08T01:22:57.488Z,0
2019-03-08T01:23:59.668Z,0
2019-03-08T01:25:02.980Z,0
2019-03-08T01:26:05.154Z,0
2019-03-08T01:27:07.312Z,0
2019-03-08T01:28:09.459Z,0
2019-03-08T01:29:11.931Z,0
2019-03-08T01:30:14.108Z,0
2019-03-08T01:31:16.258Z,0
2019-03-08T01:32:18.426Z,0
2019-03-08T01:33:20.630Z,0
2019-03-08T01:34:23.378Z,0
2019-03-08T01:35:25.541Z,0
2019-03-08T01:36:28.770Z,0
2019-03-08T01:37:31.104Z,0
2019-03-08T01:38:33.663Z,0
2019-03-08T01:39:35.837Z,0
2019-03-08T01:40:38.278Z,0
2019-03-08T01:41:40.457Z,0
2019-03-08T01:42:43.341Z,0
2019-03-08T01:43:45.872Z,0
2019-03-08T01:44:48.044Z,0
2019-03-08T01:45:50.202Z,0
2019-03-08T01:46:52.353Z,0
2019-03-08T01:47:54.905Z,0
2019-03-08T01:48:58.596Z,0
2019-03-08T01:50:00.744Z,0
2019-03-08T01:51:02.911Z,0
2019-03-08T01:52:05.086Z,0
2019-03-08T01:53:07.246Z,0
2019-03-08T01:54:09.423Z,0
2019-03-08T01:55:11.962Z,0
2019-03-08T01:56:14.112Z,0
2019-03-08T01:57:16.542Z,0
2019-03-08T01:58:18.710Z,0
2019-03-08T01:59:20.879Z,0
2019-03-08T02:00:24.252Z,0
2019-03-08T02:01:26.857Z,0
2019-03-08T02:02:29.033Z,0
2019-03-08T02:03:31.221Z,0
2019-03-08T02:04:33.388Z,0
2019-03-08T02:05:35.551Z,0
2019-03-08T02:06:37.691Z,0
2019-03-08T02:07:39.860Z,0
2019-03-08T02:08:42.015Z,0
2019-03-08T02:09:44.173Z,0
2019-03-08T02:10:46.734Z,0
2019-03-08T02:11:49.941Z,0
2019-03-08T02:12:52.112Z,0
2019-03-08T02:13:54.305Z,0
2019-03-08T02:14:56.761Z,0
2019-03-08T02:15:59.192Z,0
2019-03-08T02:17:01.634Z,0
2019-03-08T02:18:04.071Z,0
2019-03-08T02:19:06.236Z,0
2019-03-08T02:20:08.740Z,0
2019-03-08T02:21:11.165Z,0
2019-03-08T02:22:13.317Z,0
2019-03-08T02:23:16.268Z,0
2019-03-08T02:24:18.429Z,0
2019-03-08T02:25:20.612Z,0
2019-03-08T02:26:22.776Z,0
2019-03-08T02:27:24.925Z,0
2019-03-08T02:28:27.393Z,0
2019-03-08T02:29:29.557Z,0
2019-03-08T02:30:31.719Z,0
2019-03-08T02:31:34.185Z,0
2019-03-08T02:32:36.373Z,0
2019-03-08T02:33:38.567Z,0
2019-03-08T02:34:41.576Z,0
2019-03-08T02:35:44.313Z,0
2019-03-08T02:36:46.475Z,0
2019-03-08T02:37:48.660Z,0
2019-03-08T02:38:50.811Z,0
2019-03-08T02:39:52.961Z,0
2019-03-08T02:40:55.146Z,0
2019-03-08T02:41:57.289Z,0
2019-03-08T02:42:59.462Z,0
2019-03-08T02:44:01.646Z,0
2019-03-08T02:45:03.778Z,0
2019-03-08T02:46:07.147Z,0
2019-03-08T02:47:09.328Z,0
2019-03-08T02:48:11.497Z,0
2019-03-08T02:49:13.934Z,0
2019-03-08T02:50:16.385Z,0
2019-03-08T02:51:18.531Z,0
2019-03-08T02:52:20.704Z,0
2019-03-08T02:53:22.875Z,0
2019-03-08T02:54:25.026Z,0
2019-03-08T02:55:27.178Z,0
2019-03-08T02:56:29.358Z,0
2019-03-08T02:57:32.606Z,0
2019-03-08T02:58:34.761Z,0
2019-03-08T02:59:36.930Z,0
2019-03-08T03:00:39.098Z,0
2019-03-08T03:01:41.299Z,0
2019-03-08T03:02:43.742Z,0
2019-03-08T03:03:45.909Z,0
2019-03-08T03:04:48.051Z,0
2019-03-08T03:05:50.231Z,0
2019-03-08T03:06:52.419Z,0
2019-03-08T03:07:54.553Z,0
2019-03-08T03:08:57.474Z,0
2019-03-08T03:10:00.048Z,0
2019-03-08T03:11:02.248Z,0
2019-03-08T03:12:04.391Z,0
2019-03-08T03:13:06.954Z,0
2019-03-08T03:14:09.115Z,0
2019-03-08T03:15:11.255Z,0
2019-03-08T03:16:13.421Z,0
2019-03-08T03:17:15.598Z,0
2019-03-08T03:18:17.736Z,0
2019-03-08T03:19:19.905Z,0
2019-03-08T03:20:22.834Z,0
2019-03-08T03:21:25.002Z,0
2019-03-08T03:22:27.140Z,0
2019-03-08T03:23:29.731Z,0
2019-03-08T03:24:31.900Z,0
2019-03-08T03:25:34.337Z,0
2019-03-08T03:26:36.523Z,0
2019-03-08T03:27:38.674Z,0
2019-03-08T03:28:40.822Z,0
2019-03-08T03:29:43.015Z,0
2019-03-08T03:30:45.163Z,0
2019-03-08T03:31:48.617Z,0
2019-03-08T03:32:51.181Z,0
2019-03-08T03:33:53.664Z,0
2019-03-08T03:34:55.877Z,0
2019-03-08T03:35:58.054Z,0
2019-03-08T03:37:00.660Z,0
2019-03-08T03:38:02.810Z,0
2019-03-08T03:39:05.372Z,0
2019-03-08T03:40:07.512Z,0
2019-03-08T03:41:09.697Z,0
2019-03-08T03:42:11.870Z,0
2019-03-08T03:43:14.779Z,0
2019-03-08T03:44:16.946Z,0
2019-03-08T03:45:19.392Z,0
2019-03-08T03:46:21.860Z,0
2019-03-08T03:47:24.008Z,0
2019-03-08T03:48:26.169Z,0
2019-03-08T03:49:28.343Z,0
2019-03-08T03:50:30.481Z,0
2019-03-08T03:51:32.657Z,0
2019-03-08T03:52:34.803Z,0
2019-03-08T03:53:36.966Z,0
2019-03-08T03:54:40.080Z,0
2019-03-08T03:55:42.529Z,0
2019-03-08T03:56:44.696Z,0
2019-03-08T03:57:46.824Z,0
2019-03-08T03:58:48.991Z,0
2019-03-08T03:59:51.448Z,0
2019-03-08T04:00:53.611Z,0
2019-03-08T04:01:55.760Z,0
2019-03-08T04:02:57.929Z,0
2019-03-08T04:04:00.105Z,0
2019-03-08T04:05:02.278Z,0
2019-03-08T04:06:05.310Z,0
2019-03-08T04:07:07.454Z,0
2019-03-08T04:08:09.614Z,0
2019-03-08T04:09:11.769Z,0
2019-03-08T04:10:13.949Z,0
2019-03-08T04:11:16.100Z,0
2019-03-08T04:12:18.276Z,0
2019-03-08T04:13:20.439Z,0
2019-03-08T04:14:22.574Z,0
2019-03-08T04:15:24.764Z,0
2019-03-08T04:16:26.897Z,0
2019-03-08T04:17:29.909Z,0
2019-03-08T04:18:32.061Z,0
2019-03-08T04:19:34.602Z,0
2019-03-08T04:20:36.752Z,0
2019-03-08T04:21:38.947Z,0
2019-03-08T04:22:41.109Z,0
2019-03-08T04:23:43.241Z,0
2019-03-08T04:24:45.404Z,0
2019-03-08T04:25:47.558Z,0
2019-03-08T04:26:49.711Z,0
2019-03-08T04:27:51.886Z,0
2019-03-08T04:28:55.273Z,0
2019-03-08T04:29:57.419Z,0
2019-03-08T04:30:59.594Z,0
2019-03-08T04:32:01.747Z,0
2019-03-08T04:33:03.883Z,0
2019-03-08T04:34:06.043Z,0
2019-03-08T04:35:08.213Z,0
2019-03-08T04:36:10.342Z,0
2019-03-08T04:37:12.785Z,0
2019-03-08T04:38:14.969Z,0
2019-03-08T04:39:17.116Z,0
2019-03-08T04:40:20.307Z,0
2019-03-08T04:41:22.480Z,0
2019-03-08T04:42:24.632Z,0
2019-03-08T04:43:26.785Z,0
2019-03-08T04:44:28.964Z,0
2019-03-08T04:45:31.119Z,0
2019-03-08T04:46:33.297Z,0
2019-03-08T04:47:35.487Z,0
2019-03-08T04:48:37.643Z,0
2019-03-08T04:49:39.843Z,0
2019-03-08T04:50:42.181Z,0
2019-03-08T04:51:45.371Z,0
2019-03-08T04:52:47.500Z,0
2019-03-08T04:53:49.686Z,0
2019-03-08T04:54:52.126Z,0
2019-03-08T04:55:54.324Z,0
2019-03-08T04:56:56.534Z,0
2019-03-08T04:57:58.679Z,0
2019-03-08T04:59:01.219Z,0
2019-03-08T05:00:03.395Z,0
2019-03-08T05:01:05.564Z,0
2019-03-08T05:02:07.691Z,0
2019-03-08T05:03:10.796Z,0
2019-03-08T05:04:12.948Z,0
2019-03-08T05:05:15.105Z,0
2019-03-08T05:06:17.305Z,0
2019-03-08T05:07:19.499Z,0
2019-03-08T05:08:21.665Z,0
2019-03-08T05:09:23.830Z,0
2019-03-08T05:10:26.004Z,0
2019-03-08T05:11:28.169Z,0
2019-03-08T05:12:31.038Z,0
2019-03-08T05:13:33.696Z,0
2019-03-08T05:14:36.248Z,0
2019-03-08T05:15:38.403Z,0
2019-03-08T05:16:40.562Z,0
2019-03-08T05:17:42.752Z,0
2019-03-08T05:18:44.981Z,4
2019-03-08T05:19:47.431Z,4
2019-03-08T05:20:49.640Z,4
2019-03-08T05:21:51.815Z,0
2019-03-08T05:22:53.977Z,0
2019-03-08T05:23:56.134Z,4
2019-03-08T05:24:59.355Z,4
2019-03-08T05:26:01.968Z,0
2019-03-08T05:27:04.439Z,4
2019-03-08T05:28:06.986Z,8
2019-03-08T05:29:09.187Z,8
2019-03-08T05:30:11.366Z,8
2019-03-08T05:31:14.195Z,8
2019-03-08T05:32:16.348Z,12
2019-03-08T05:33:18.510Z,12
2019-03-08T05:34:20.667Z,16
2019-03-08T05:35:22.809Z,24
2019-03-08T05:36:25.891Z,28
2019-03-08T05:37:28.057Z,36
2019-03-08T05:38:30.217Z,40
2019-03-08T05:39:32.776Z,48
2019-03-08T05:40:34.930Z,44
2019-03-08T05:41:37.089Z,56
2019-03-08T05:42:39.250Z,64
2019-03-08T05:43:41.435Z,80
2019-03-08T05:44:43.587Z,76
2019-03-08T05:45:45.744Z,84
2019-03-08T05:46:47.869Z,84
2019-03-08T05:47:50.969Z,88
2019-03-08T05:48:53.432Z,88
2019-03-08T05:49:55.602Z,108
2019-03-08T05:50:58.149Z,132
2019-03-08T05:52:00.330Z,136
2019-03-08T05:53:02.501Z,136
2019-03-08T05:54:04.670Z,120
2019-03-08T05:55:08.913Z,132
2019-03-08T05:56:11.059Z,160
2019-03-08T05:57:13.224Z,212
2019-03-08T05:58:15.378Z,180
2019-03-08T05:59:18.687Z,192
2019-03-08T06:00:20.836Z,216
2019-03-08T06:01:36.838Z,260
2019-03-08T06:02:39.003Z,276
2019-03-08T06:03:41.185Z,256
2019-03-08T06:04:43.645Z,248
2019-03-08T06:05:45.791Z,260
2019-03-08T06:06:47.941Z,264
2019-03-08T06:07:50.089Z,348
2019-03-08T06:08:52.256Z,304
2019-03-08T06:09:54.408Z,380
2019-03-08T06:10:56.992Z,448
2019-03-08T06:11:59.171Z,468
2019-03-08T06:13:02.364Z,440
2019-03-08T06:14:05.147Z,420
2019-03-08T06:15:07.326Z,408
2019-03-08T06:16:09.473Z,508
2019-03-08T06:17:11.674Z,476
2019-03-08T06:18:13.850Z,508
2019-03-08T06:19:16.293Z,536
2019-03-08T06:20:19.020Z,528
2019-03-08T06:21:21.187Z,564
2019-03-08T06:22:23.382Z,548
2019-03-08T06:23:26.043Z,584
2019-03-08T06:24:29.378Z,572
2019-03-08T06:25:31.567Z,604
2019-03-08T06:26:34.058Z,900
2019-03-08T06:27:36.201Z,864
2019-03-08T06:28:38.688Z,956
2019-03-08T06:29:40.841Z,1244
2019-03-08T06:30:42.991Z,1140
2019-03-08T06:31:45.163Z,1276
2019-03-08T06:32:47.619Z,1160
2019-03-08T06:33:50.081Z,1484
2019-03-08T06:34:53.107Z,1300
2019-03-08T06:35:55.301Z,1252
2019-03-08T06:36:57.476Z,1180
2019-03-08T06:37:59.648Z,1872
2019-03-08T06:39:01.798Z,1708
2019-03-08T06:40:04.245Z,1588
2019-03-08T06:41:06.398Z,2280
2019-03-08T06:42:08.594Z,2076
2019-03-08T06:43:10.743Z,1732
2019-03-08T06:44:12.909Z,1428
2019-03-08T06:44:42.873Z,1812
2019-03-08T06:45:45.313Z,1768
2019-03-08T06:46:47.539Z,1732
2019-03-08T06:47:50.097Z,1624
2019-03-08T06:48:52.278Z,2024
2019-03-08T06:49:54.415Z,1852
2019-03-08T06:50:56.998Z,2020
2019-03-08T06:52:00.928Z,2096
2019-03-08T06:53:04.238Z,1716
2019-03-08T06:54:06.796Z,1776
2019-03-08T06:55:08.988Z,1912
2019-03-08T06:56:11.158Z,1816
2019-03-08T06:57:13.708Z,2208
2019-03-08T06:58:15.867Z,1892
2019-03-08T06:59:18.014Z,2188
2019-03-08T07:00:20.583Z,1780
2019-03-08T07:01:22.743Z,2140
2019-03-08T07:02:25.044Z,2280
2019-03-08T07:03:28.591Z,2512
2019-03-08T07:04:30.759Z,2968
2019-03-08T07:05:32.918Z,2696
2019-03-08T07:06:35.082Z,2428
2019-03-08T07:07:37.241Z,3000
2019-03-08T07:08:39.399Z,3260
2019-03-08T07:09:41.874Z,2936
2019-03-08T07:10:44.034Z,2372
2019-03-08T07:11:46.212Z,2224
2019-03-08T07:12:48.353Z,2596
2019-03-08T07:13:51.589Z,2088
2019-03-08T07:14:53.749Z,2500
2019-03-08T07:15:55.893Z,3268
2019-03-08T07:16:58.407Z,3684
2019-03-08T07:18:00.561Z,4776
2019-03-08T07:19:02.730Z,5740
2019-03-08T07:20:05.188Z,5900
2019-03-08T07:21:07.635Z,4608
2019-03-08T07:22:09.785Z,3516
2019-03-08T07:23:12.356Z,2640
2019-03-08T07:24:14.526Z,2328
2019-03-08T07:25:17.892Z,3668
2019-03-08T07:26:20.030Z,3644
2019-03-08T07:27:22.187Z,2640
2019-03-08T07:28:24.345Z,2132
2019-03-08T07:29:26.507Z,2128
2019-03-08T07:30:28.675Z,3260
2019-03-08T07:31:30.837Z,4312
2019-03-08T07:32:33.002Z,4068
2019-03-08T07:33:35.186Z,4184
2019-03-08T07:34:37.357Z,4088
2019-03-08T07:35:39.495Z,3904
2019-03-08T07:36:42.488Z,3936
2019-03-08T07:37:44.648Z,3992
2019-03-08T07:38:46.790Z,4648
2019-03-08T07:39:49.228Z,5440
2019-03-08T07:40:51.381Z,6212
2019-03-08T07:41:53.523Z,5576
2019-03-08T07:42:55.697Z,4356
2019-03-08T07:43:58.121Z,4568
2019-03-08T07:45:00.323Z,5640
2019-03-08T07:46:02.788Z,5600
2019-03-08T07:47:05.684Z,6144
2019-03-08T07:48:09.416Z,6388
2019-03-08T07:49:11.577Z,7980
2019-03-08T07:50:14.031Z,9660
2019-03-08T07:51:16.170Z,9648
2019-03-08T07:52:18.620Z,8068
2019-03-08T07:53:21.073Z,6200
2019-03-08T07:54:23.242Z,6424
2019-03-08T07:55:25.677Z,5616
2019-03-08T07:56:27.888Z,5880
2019-03-08T07:57:30.045Z,6320
2019-03-08T07:58:32.198Z,6148
2019-03-08T07:59:35.349Z,5920
2019-03-08T08:00:38.435Z,6220
2019-03-08T08:01:40.610Z,6852
2019-03-08T08:02:42.776Z,6816
2019-03-08T08:03:44.937Z,6204
2019-03-08T08:04:47.477Z,6484
2019-03-08T08:05:57.499Z,6952
2019-03-08T08:07:00.832Z,6536
2019-03-08T08:08:03.000Z,6244
2019-03-08T08:09:05.467Z,6368
2019-03-08T08:10:07.621Z,7144
2019-03-08T08:11:10.061Z,6992
2019-03-08T08:12:12.263Z,6344
2019-03-08T08:13:15.465Z,6552
2019-03-08T08:14:17.891Z,6804
2019-03-08T08:15:20.443Z,6720
2019-03-08T08:16:22.623Z,6312
2019-03-08T08:17:24.771Z,6800
2019-03-08T08:18:26.936Z,6244
2019-03-08T08:19:29.163Z,5964
2019-03-08T08:20:31.290Z,6432
2019-03-08T08:21:33.464Z,5720
2019-03-08T08:22:35.672Z,5932
2019-03-08T08:23:37.826Z,5808
2019-03-08T08:24:41.011Z,6784
2019-03-08T08:25:43.277Z,6628
2019-03-08T08:26:45.422Z,5912
2019-03-08T08:27:47.626Z,6044
2019-03-08T08:28:50.276Z,6228
2019-03-08T08:29:52.788Z,5696
2019-03-08T08:30:55.399Z,6116
2019-03-08T08:31:57.562Z,5220
2019-03-08T08:33:00.090Z,5532
2019-03-08T08:34:02.261Z,4900
2019-03-08T08:35:04.437Z,4656
2019-03-08T08:36:07.522Z,4388
2019-03-08T08:37:10.275Z,4280
2019-03-08T08:38:12.433Z,3912
2019-03-08T08:39:14.581Z,4220
2019-03-08T08:40:17.014Z,3340
2019-03-08T08:41:19.185Z,3372
2019-03-08T08:42:21.356Z,4864
2019-03-08T08:43:23.518Z,3676
2019-03-08T08:44:25.687Z,3696
2019-03-08T08:45:27.856Z,3488
2019-03-08T08:46:30.029Z,2992
2019-03-08T08:47:33.263Z,4968
2019-03-08T08:48:35.436Z,6648
2019-03-08T08:49:37.604Z,7032
2019-03-08T08:50:40.164Z,9356
2019-03-08T08:51:42.318Z,8668
2019-03-08T08:52:44.500Z,8012
2019-03-08T08:53:46.919Z,9452
2019-03-08T08:54:49.074Z,9924
2019-03-08T08:55:51.230Z,13364
2019-03-08T08:56:53.373Z,15196
2019-03-08T08:57:55.545Z,15288
2019-03-08T08:58:58.388Z,16788
2019-03-08T09:00:00.810Z,17620
2019-03-08T09:01:02.993Z,21760
2019-03-08T09:02:05.180Z,22880
2019-03-08T09:03:07.337Z,25600
2019-03-08T09:04:09.491Z,22336
2019-03-08T09:05:11.667Z,21184
2019-03-08T09:06:13.834Z,22176
2019-03-08T09:07:16.019Z,24064
2019-03-08T09:08:18.185Z,33024
2019-03-08T09:09:20.737Z,44352
2019-03-08T09:10:23.955Z,21024
2019-03-08T09:11:26.131Z,19264
2019-03-08T09:12:28.602Z,65696
2019-03-08T09:13:30.788Z,19552
2019-03-08T09:14:32.933Z,18368
2019-03-08T09:15:35.150Z,12392
2019-03-08T09:16:37.749Z,17472
2019-03-08T09:17:39.890Z,14308
2019-03-08T09:18:42.081Z,11996
2019-03-08T09:19:44.246Z,13888
2019-03-08T09:20:46.397Z,14148
2019-03-08T09:21:49.498Z,11852
2019-03-08T09:22:51.644Z,16168
2019-03-08T09:23:53.970Z,12448
2019-03-08T09:24:56.459Z,17464
2019-03-08T09:25:58.673Z,16712
2019-03-08T09:27:00.810Z,17756
2019-03-08T09:28:02.976Z,16672
2019-03-08T09:29:05.126Z,11680
2019-03-08T09:30:07.275Z,10748
2019-03-08T09:31:09.718Z,9164
2019-03-08T09:32:11.870Z,14776
2019-03-08T09:33:15.060Z,13232
2019-03-08T09:34:17.213Z,13260
2019-03-08T09:35:19.694Z,17008
2019-03-08T09:36:21.848Z,10796
2019-03-08T09:37:24.027Z,8560
2019-03-08T09:38:26.193Z,8508
2019-03-08T09:39:28.328Z,13804
2019-03-08T09:40:30.493Z,14788
2019-03-08T09:41:32.938Z,17884
2019-03-08T09:42:35.088Z,24448
2019-03-08T09:43:37.921Z,31136
2019-03-08T09:44:41.078Z,60384
2019-03-08T09:45:43.899Z,55072
2019-03-08T09:46:46.065Z,46560
2019-03-08T09:47:50.356Z,60384
2019-03-08T09:48:52.502Z,55104
2019-03-08T09:49:55.254Z,54880
2019-03-08T09:50:57.416Z,51008
2019-03-08T09:51:59.546Z,51520
2019-03-08T09:53:01.717Z,47680
2019-03-08T09:54:03.878Z,57312
2019-03-08T09:55:06.041Z,84288
2019-03-08T09:56:08.719Z,88960
2019-03-08T09:57:11.398Z,68192
2019-03-08T09:58:13.604Z,61696
2019-03-08T09:59:15.807Z,64480
2019-03-08T10:00:18.228Z,30368
2019-03-08T10:01:20.391Z,47648
2019-03-08T10:02:22.576Z,26816
2019-03-08T10:03:24.723Z,23680
2019-03-08T10:04:26.930Z,36960
2019-03-08T10:05:29.772Z,82432
2019-03-08T10:06:32.317Z,47232
2019-03-08T10:07:34.475Z,25664
2019-03-08T10:08:37.949Z,35456
2019-03-08T10:09:40.099Z,78368
2019-03-08T10:10:42.647Z,74400
2019-03-08T10:11:44.818Z,27072
2019-03-08T10:12:46.955Z,27136
2019-03-08T10:13:49.444Z,28032
2019-03-08T10:14:51.986Z,27360
2019-03-08T10:15:54.140Z,78496
2019-03-08T10:16:56.299Z,28224
2019-03-08T10:17:58.790Z,87584
2019-03-08T10:19:00.959Z,18944
2019-03-08T10:20:04.710Z,20480
2019-03-08T10:21:06.873Z,28256
2019-03-08T10:22:09.024Z,84064
2019-03-08T10:23:19.607Z,84640
2019-03-08T10:24:22.292Z,62496
2019-03-08T10:25:24.478Z,15196
2019-03-08T10:26:26.864Z,12156
2019-03-08T10:27:37.722Z,12004
2019-03-08T10:28:40.874Z,12484
2019-03-08T10:29:43.067Z,89184
2019-03-08T10:30:45.229Z,16436
2019-03-08T10:31:47.388Z,90592
2019-03-08T10:32:49.531Z,85632
2019-03-08T10:33:52.799Z,82720
2019-03-08T10:34:56.126Z,83840
2019-03-08T10:35:58.280Z,83232
2019-03-08T10:37:00.476Z,81728
2019-03-08T10:38:02.625Z,60928
2019-03-08T10:39:05.459Z,92416
2019-03-08T10:40:07.631Z,89632
2019-03-08T10:41:09.906Z,27168
2019-03-08T10:42:12.056Z,21760
2019-03-08T10:43:14.217Z,80640
2019-03-08T10:44:16.377Z,30528
2019-03-08T10:45:18.525Z,37696
2019-03-08T10:46:21.734Z,74624
2019-03-08T10:47:23.881Z,21664
2019-03-08T10:48:26.443Z,16816
2019-03-08T10:49:28.648Z,82272
2019-03-08T10:50:30.836Z,80288
2019-03-08T10:51:32.990Z,89472
2019-03-08T10:52:35.537Z,30624
2019-03-08T10:53:37.705Z,86816
2019-03-08T10:54:39.876Z,26912
2019-03-08T10:55:42.076Z,26656
2019-03-08T10:56:44.258Z,25088
2019-03-08T10:57:47.836Z,27712
2019-03-08T10:58:50.027Z,90368
2019-03-08T10:59:52.576Z,101856
2019-03-08T11:00:54.732Z,26432
2019-03-08T11:01:56.926Z,101472
2019-03-08T11:02:59.083Z,89376
2019-03-08T11:04:01.623Z,27840
2019-03-08T11:05:04.072Z,28192
2019-03-08T11:06:06.573Z,25632
2019-03-08T11:07:08.734Z,102880
2019-03-08T11:08:11.194Z,44992
2019-03-08T11:09:14.704Z,104928
2019-03-08T11:10:16.858Z,102720
2019-03-08T11:11:19.620Z,102944
2019-03-08T11:12:21.837Z,26496
2019-03-08T11:13:24.390Z,29632
2019-03-08T11:14:26.579Z,28960
2019-03-08T11:15:28.780Z,23520
2019-03-08T11:16:30.960Z,33376
2019-03-08T11:17:33.406Z,23904
2019-03-08T11:18:35.574Z,23040
2019-03-08T11:19:37.767Z,49632
2019-03-08T11:20:40.703Z,23648
2019-03-08T11:21:42.864Z,21152
2019-03-08T11:22:45.039Z,21056
2019-03-08T11:23:47.206Z,21920
2019-03-08T11:24:49.358Z,82432
2019-03-08T11:25:51.522Z,101216
2019-03-08T11:26:53.692Z,26400
2019-03-08T11:27:55.864Z,28032
2019-03-08T11:28:58.055Z,106848
2019-03-08T11:30:00.215Z,99584
2019-03-08T11:31:02.783Z,28928
2019-03-08T11:32:05.779Z,42560
2019-03-08T11:33:08.058Z,31904
2019-03-08T11:34:10.213Z,23072
